createdAt,value
2023-12-18T00:00:23.263Z,101001.69
2023-12-18T00:02:50.905Z,100996.06
2023-12-18T00:05:18.682Z,100997.83
2023-12-18T00:07:46.409Z,100999.23
2023-12-18T00:10:14.369Z,101000.66
2023-12-18T00:12:42.046Z,101000.68
2023-12-18T00:15:09.849Z,100992.28
2023-12-18T00:17:37.614Z,100985.99
2023-12-18T00:20:05.781Z,100987.06
2023-12-18T00:22:33.513Z,100982.88
2023-12-18T00:25:01.172Z,100984.48
2023-12-18T00:27:28.810Z,100981.02
2023-12-18T00:29:56.492Z,100980.88
2023-12-18T00:32:24.051Z,100984.08
2023-12-18T00:34:51.802Z,100981.84
2023-12-18T00:37:19.468Z,100978.70
2023-12-18T00:39:47.037Z,100981.54
2023-12-18T00:42:14.629Z,100978.03
2023-12-18T00:44:42.260Z,100974.89
2023-12-18T00:47:09.914Z,100970.34
2023-12-18T00:49:37.904Z,100967.90
2023-12-18T00:52:05.640Z,100966.14
2023-12-18T00:54:33.236Z,100965.27
2023-12-18T00:57:00.902Z,100961.60
2023-12-18T00:59:28.531Z,100959.34
2023-12-18T01:01:56.085Z,100957.75
2023-12-18T01:04:23.684Z,100957.59
2023-12-18T01:06:51.325Z,100957.59
2023-12-18T01:09:19.013Z,100952.84
2023-12-18T01:11:46.526Z,100946.52
2023-12-18T01:14:14.094Z,100941.10
2023-12-18T01:16:41.452Z,100936.00
2023-12-18T01:19:09.299Z,100932.14
2023-12-18T01:21:37.027Z,100931.93
2023-12-18T01:24:04.777Z,100927.02
2023-12-18T01:26:32.502Z,100920.86
2023-12-18T01:29:00.177Z,100914.36
2023-12-18T01:31:27.852Z,100908.40
2023-12-18T01:33:55.699Z,100907.19
2023-12-18T01:36:23.646Z,100904.20
2023-12-18T01:38:51.332Z,100902.27
2023-12-18T01:41:18.985Z,100900.52
2023-12-18T01:43:46.529Z,100895.76
2023-12-18T01:46:14.095Z,100892.05
2023-12-18T01:48:41.762Z,100890.98
2023-12-18T01:51:09.973Z,100890.08
2023-12-18T01:53:37.596Z,100890.06
2023-12-18T01:56:05.263Z,100894.44
2023-12-18T01:58:32.830Z,100888.45
2023-12-18T02:01:00.570Z,100885.83
2023-12-18T02:03:28.320Z,100882.98
2023-12-18T02:05:56.110Z,100879.83
2023-12-18T02:08:23.667Z,100881.77
2023-12-18T02:10:51.118Z,100880.89
2023-12-18T02:13:18.672Z,100878.96
2023-12-18T02:15:46.584Z,100874.92
2023-12-18T02:18:14.460Z,100880.19
2023-12-18T02:20:42.278Z,100880.90
2023-12-18T02:23:09.831Z,100885.64
2023-12-18T02:25:37.409Z,100886.35
2023-12-18T02:28:05.058Z,100880.91
2023-12-18T02:30:32.731Z,100885.30
2023-12-18T02:33:00.463Z,100890.05
2023-12-18T02:35:28.489Z,100888.67
2023-12-18T02:37:56.116Z,100890.11
2023-12-18T02:40:23.672Z,100896.10
2023-12-18T02:42:51.365Z,100895.07
2023-12-18T02:45:19.089Z,100889.65
2023-12-18T02:47:46.974Z,100895.65
2023-12-18T02:50:14.732Z,100892.31
2023-12-18T02:52:42.389Z,100896.90
2023-12-18T02:55:09.944Z,100896.91
2023-12-18T02:57:37.846Z,100894.30
2023-12-18T03:00:05.631Z,100892.22
2023-12-18T03:02:33.345Z,100889.61
2023-12-18T03:05:00.948Z,100892.09
2023-12-18T03:07:28.666Z,100893.16
2023-12-18T03:09:56.237Z,100890.89
2023-12-18T03:12:24.056Z,100892.30
2023-12-18T03:14:51.755Z,100886.88
2023-12-18T03:17:19.735Z,100889.50
2023-12-18T03:19:47.371Z,100882.84
2023-12-18T03:22:15.151Z,100885.64
2023-12-18T03:24:42.786Z,100883.01
2023-12-18T03:27:10.580Z,100883.18
2023-12-18T03:29:38.187Z,100887.73
2023-12-18T03:32:05.792Z,100884.40
2023-12-18T03:34:33.541Z,100881.06
2023-12-18T03:37:01.754Z,100879.13
2023-12-18T03:39:29.314Z,100878.97
2023-12-18T03:41:56.845Z,100882.65
2023-12-18T03:44:24.402Z,100881.24
2023-12-18T03:46:51.964Z,100875.98
2023-12-18T03:49:19.805Z,100872.32
2023-12-18T03:51:47.529Z,100871.25
2023-12-18T03:54:15.278Z,100871.77
2023-12-18T03:56:42.813Z,100873.88
2023-12-18T03:59:10.684Z,100876.13
2023-12-18T04:01:38.294Z,100872.44
2023-12-18T04:04:06.069Z,100875.74
2023-12-18T04:06:33.799Z,100882.02
2023-12-18T04:09:01.452Z,100882.35
2023-12-18T04:11:29.022Z,100879.02
2023-12-18T04:13:56.655Z,100880.91
2023-12-18T04:16:24.321Z,100886.64
2023-12-18T04:18:52.025Z,100888.20
2023-12-18T04:21:19.875Z,100885.02
2023-12-18T04:23:47.601Z,100884.83
2023-12-18T04:26:15.180Z,100892.36
2023-12-18T04:28:42.833Z,100885.58
2023-12-18T04:31:10.411Z,100885.79
2023-12-18T04:33:38.326Z,100893.17
2023-12-18T04:36:06.074Z,100888.67
2023-12-18T04:38:33.784Z,100891.17
2023-12-18T04:41:01.335Z,100894.70
2023-12-18T04:43:28.905Z,100893.16
2023-12-18T04:45:56.458Z,100890.02
2023-12-18T04:48:24.180Z,100881.09
2023-12-18T04:50:51.778Z,100879.88
2023-12-18T04:53:19.338Z,100884.59
2023-12-18T04:55:46.996Z,100888.45
2023-12-18T04:58:14.582Z,100889.14
2023-12-18T05:00:42.315Z,100882.30
2023-12-18T05:03:10.216Z,100877.91
2023-12-18T05:05:38.400Z,100880.70
2023-12-18T05:08:05.922Z,100881.39
2023-12-18T05:10:33.490Z,100879.64
2023-12-18T05:13:01.062Z,100875.60
2023-12-18T05:15:28.753Z,100882.96
2023-12-18T05:17:56.384Z,100878.40
2023-12-18T05:20:24.038Z,100878.05
2023-12-18T05:22:51.704Z,100882.95
2023-12-18T05:25:19.573Z,100885.41
2023-12-18T05:27:47.170Z,100878.92
2023-12-18T05:30:15.073Z,100879.27
2023-12-18T05:32:43.188Z,100882.44
2023-12-18T05:35:11.025Z,100888.73
2023-12-18T05:37:38.685Z,100890.50
2023-12-18T05:40:06.338Z,100890.52
2023-12-18T05:42:33.990Z,100889.98
2023-12-18T05:45:01.992Z,100893.68
2023-12-18T05:47:29.675Z,100890.52
2023-12-18T05:49:57.351Z,100892.62
2023-12-18T05:52:25.068Z,100893.31
2023-12-18T05:54:52.682Z,100888.23
2023-12-18T05:57:20.579Z,100883.85
2023-12-18T05:59:48.252Z,100880.00
2023-12-18T06:02:15.916Z,100880.70
2023-12-18T06:04:43.609Z,100884.55
2023-12-18T06:07:11.792Z,100887.70
2023-12-18T06:09:39.652Z,100889.79
2023-12-18T06:12:07.419Z,100885.57
2023-12-18T06:14:35.054Z,100891.35
2023-12-18T06:17:02.708Z,100890.82
2023-12-18T06:19:30.374Z,100888.52
2023-12-18T06:21:58.119Z,100890.27
2023-12-18T06:24:25.724Z,100891.16
2023-12-18T06:26:53.752Z,100891.52
2023-12-18T06:29:21.108Z,100893.08
2023-12-18T06:31:48.824Z,100892.73
2023-12-18T06:34:16.722Z,100891.68
2023-12-18T06:36:44.454Z,100889.41
2023-12-18T06:39:12.269Z,100890.61
2023-12-18T06:41:39.931Z,100894.65
2023-12-18T06:44:07.595Z,100894.13
2023-12-18T06:46:35.160Z,100894.99
2023-12-18T06:49:03.184Z,100894.98
2023-12-18T06:51:30.892Z,100888.16
2023-12-18T06:53:58.566Z,100888.51
2023-12-18T06:56:26.105Z,100892.71
2023-12-18T06:58:53.870Z,100895.52
2023-12-18T07:01:21.534Z,100898.86
2023-12-18T07:03:49.276Z,100902.71
2023-12-18T07:06:16.974Z,100906.04
2023-12-18T07:08:44.744Z,100912.69
2023-12-18T07:11:12.281Z,100912.86
2023-12-18T07:13:39.951Z,100911.11
2023-12-18T07:16:07.529Z,100912.52
2023-12-18T07:18:35.379Z,100915.84
2023-12-18T07:21:03.232Z,100920.92
2023-12-18T07:23:30.796Z,100918.80
2023-12-18T07:25:58.346Z,100916.69
2023-12-18T07:28:25.911Z,100915.45
2023-12-18T07:30:53.324Z,100906.29
2023-12-18T07:33:21.275Z,100902.73
2023-12-18T07:35:48.898Z,100893.98
2023-12-18T07:38:16.558Z,100886.09
2023-12-18T07:40:44.117Z,100877.52
2023-12-18T07:43:11.775Z,100878.46
2023-12-18T07:45:39.376Z,100884.20
2023-12-18T07:48:12.635Z,100881.80
2023-12-18T07:50:40.424Z,100865.66
2023-12-18T07:53:08.052Z,100864.21
2023-12-18T07:55:36.023Z,100870.30
2023-12-18T07:58:03.691Z,100866.89
2023-12-18T08:00:31.270Z,100867.69
2023-12-18T08:02:59.187Z,100865.50
2023-12-18T08:05:26.956Z,100868.21
2023-12-18T08:07:54.845Z,100864.33
2023-12-18T08:10:22.404Z,100856.27
2023-12-18T08:12:50.170Z,100861.64
2023-12-18T08:15:17.855Z,100861.60
2023-12-18T08:17:45.741Z,100859.77
2023-12-18T08:20:13.457Z,100852.42
2023-12-18T08:22:41.470Z,100842.95
2023-12-18T08:25:09.192Z,100844.14
2023-12-18T08:27:36.876Z,100836.52
2023-12-18T08:30:04.597Z,100838.08
2023-12-18T08:32:32.435Z,100838.70
2023-12-18T08:35:00.353Z,100844.36
2023-12-18T08:37:28.011Z,100849.20
2023-12-18T08:39:55.703Z,100849.24
2023-12-18T08:42:23.558Z,100855.54
2023-12-18T08:44:51.302Z,100852.87
2023-12-18T08:47:18.976Z,100855.05
2023-12-18T08:49:46.528Z,100855.92
2023-12-18T08:52:14.186Z,100856.91
2023-12-18T08:54:41.876Z,100855.09
2023-12-18T08:57:09.934Z,100855.03
2023-12-18T08:59:37.478Z,100860.70
2023-12-18T09:02:05.308Z,100862.52
2023-12-18T09:04:33.148Z,100860.98
2023-12-18T09:07:00.799Z,100858.33
2023-12-18T09:09:28.437Z,100859.41
2023-12-18T09:11:55.982Z,100850.36
2023-12-18T09:14:23.563Z,100860.05
2023-12-18T09:16:51.520Z,100859.21
2023-12-18T09:19:19.252Z,100859.94
2023-12-18T09:21:47.110Z,100855.95
2023-12-18T09:24:14.837Z,100855.64
2023-12-18T09:26:42.469Z,100856.85
2023-12-18T09:29:10.214Z,100850.06
2023-12-18T09:31:37.976Z,100854.62
2023-12-18T09:34:06.147Z,100847.20
2023-12-18T09:36:33.895Z,100855.39
2023-12-18T09:39:02.002Z,100857.25
2023-12-18T09:41:29.562Z,100864.37
2023-12-18T09:43:57.230Z,100859.15
2023-12-18T09:46:24.892Z,100854.36
2023-12-18T09:48:52.640Z,100849.89
2023-12-18T09:51:20.343Z,100855.28
2023-12-18T09:53:47.978Z,100855.56
2023-12-18T09:56:15.642Z,100847.95
2023-12-18T09:58:43.197Z,100839.15
2023-12-18T10:01:10.965Z,100833.21
2023-12-18T10:03:38.695Z,100824.58
2023-12-18T10:06:06.500Z,100819.05
2023-12-18T10:08:34.049Z,100815.97
2023-12-18T10:11:01.711Z,100811.39
2023-12-18T10:13:29.269Z,100805.70
2023-12-18T10:15:56.989Z,100800.25
2023-12-18T10:18:24.896Z,100798.19
2023-12-18T10:20:53.867Z,100797.79
2023-12-18T10:23:21.448Z,100793.11
2023-12-18T10:25:49.124Z,100791.84
2023-12-18T10:28:16.770Z,100788.29
2023-12-18T10:30:44.469Z,100791.17
2023-12-18T10:33:12.617Z,100792.65
2023-12-18T10:35:40.477Z,100792.95
2023-12-18T10:38:08.043Z,100793.70
2023-12-18T10:40:35.719Z,100790.05
2023-12-18T10:43:03.764Z,100784.72
2023-12-18T10:45:31.524Z,100785.66
2023-12-18T10:47:59.429Z,100778.44
2023-12-18T10:50:27.277Z,100777.92
2023-12-18T10:52:54.826Z,100777.76
2023-12-18T10:55:22.547Z,100771.16
2023-12-18T10:57:50.258Z,100772.83
2023-12-18T11:00:18.179Z,100766.30
2023-12-18T11:02:45.893Z,100768.98
2023-12-18T11:05:13.824Z,100765.25
2023-12-18T11:07:41.949Z,100752.92
2023-12-18T11:10:11.434Z,100762.22
2023-12-18T11:12:40.344Z,100766.74
2023-12-18T11:15:08.050Z,100762.20
2023-12-18T11:17:35.901Z,100761.17
2023-12-18T11:20:03.692Z,100763.26
2023-12-18T11:22:31.478Z,100755.00
2023-12-18T11:24:59.334Z,100746.40
2023-12-18T11:27:26.926Z,100746.00
2023-12-18T11:29:54.357Z,100740.66
2023-12-18T11:32:21.909Z,100737.17
2023-12-18T11:34:49.734Z,100730.45
2023-12-18T11:37:17.551Z,100731.17
2023-12-18T11:39:45.129Z,100728.71
2023-12-18T11:42:13.302Z,100728.69
2023-12-18T11:44:40.966Z,100730.77
2023-12-18T11:47:08.594Z,100727.48
2023-12-18T11:49:36.217Z,100717.56
2023-12-18T11:52:03.924Z,100717.06
2023-12-18T11:54:32.861Z,100718.48
2023-12-18T11:57:00.574Z,100717.09
2023-12-18T11:59:28.231Z,100716.04
2023-12-18T12:01:55.789Z,100717.76
2023-12-18T12:04:23.810Z,100708.95
2023-12-18T12:06:51.480Z,100704.14
2023-12-18T12:09:19.231Z,100699.98
2023-12-18T12:11:46.846Z,100705.46
2023-12-18T12:14:14.517Z,100694.13
2023-12-18T12:16:41.898Z,100687.02
2023-12-18T12:19:09.711Z,100683.03
2023-12-18T12:21:45.223Z,100684.44
2023-12-18T12:24:16.976Z,100690.58
2023-12-18T12:26:44.818Z,100682.62
2023-12-18T12:29:12.649Z,100684.14
2023-12-18T12:31:40.535Z,100697.27
2023-12-18T12:34:08.357Z,100697.69
2023-12-18T12:36:36.113Z,100697.70
2023-12-18T12:39:03.959Z,100704.61
2023-12-18T12:41:33.432Z,100704.63
2023-12-18T12:44:04.937Z,100702.34
2023-12-18T12:46:36.008Z,100697.63
2023-12-18T12:49:04.561Z,100697.27
2023-12-18T12:51:34.279Z,100689.17
2023-12-18T12:54:01.999Z,100684.17
2023-12-18T12:56:29.651Z,100684.14
2023-12-18T12:58:57.436Z,100687.64
2023-12-18T13:01:25.191Z,100674.92
2023-12-18T13:03:53.200Z,100681.98
2023-12-18T13:06:21.554Z,100690.84
2023-12-18T13:08:49.387Z,100684.84
2023-12-18T13:11:17.055Z,100685.63
2023-12-18T13:13:44.721Z,100684.09
2023-12-18T13:16:12.261Z,100679.16
2023-12-18T13:18:40.068Z,100682.67
2023-12-18T13:21:07.803Z,100678.22
2023-12-18T13:23:35.667Z,100674.16
2023-12-18T13:26:03.656Z,100670.04
2023-12-18T13:28:31.298Z,100669.00
2023-12-18T13:30:58.744Z,100675.23
2023-12-18T13:33:26.677Z,100683.77
2023-12-18T13:35:55.524Z,100687.41
2023-12-18T13:38:23.887Z,100691.20
2023-12-18T13:40:51.446Z,100688.86
2023-12-18T13:43:19.106Z,100684.87
2023-12-18T13:45:46.860Z,100682.94
2023-12-18T13:48:14.593Z,100691.73
2023-12-18T13:50:42.700Z,100700.44
2023-12-18T13:53:10.166Z,100707.28
2023-12-18T13:55:37.724Z,100707.52
2023-12-18T13:58:05.312Z,100704.95
2023-12-18T14:00:33.010Z,100704.29
2023-12-18T14:03:00.632Z,100714.17
2023-12-18T14:05:28.192Z,100713.23
2023-12-18T14:07:55.838Z,100713.00
2023-12-18T14:10:23.517Z,100708.40
2023-12-18T14:12:51.651Z,100706.19
2023-12-18T14:15:19.388Z,100701.77
2023-12-18T14:17:47.086Z,100700.74
2023-12-18T14:20:14.779Z,100694.05
2023-12-18T14:22:42.609Z,100687.66
2023-12-18T14:25:10.539Z,100682.17
2023-12-18T14:27:38.292Z,100684.16
2023-12-18T14:30:06.145Z,100684.94
2023-12-18T14:32:33.992Z,100692.02
2023-12-18T14:35:01.873Z,100696.52
2023-12-18T14:37:29.603Z,100704.34
2023-12-18T14:39:57.431Z,100709.77
2023-12-18T14:42:25.260Z,100712.83
2023-12-18T14:44:52.813Z,100718.64
2023-12-18T14:47:20.419Z,100718.83
2023-12-18T14:49:48.125Z,100713.73
2023-12-18T14:52:16.297Z,100710.35
2023-12-18T14:54:43.870Z,100712.83
2023-12-18T14:57:11.556Z,100713.61
2023-12-18T14:59:39.170Z,100709.56
2023-12-18T15:02:06.900Z,100715.00
2023-12-18T15:04:34.710Z,100717.45
2023-12-18T15:07:02.500Z,100718.52
2023-12-18T15:09:30.293Z,100716.92
2023-12-18T15:11:58.086Z,100717.66
2023-12-18T15:14:25.973Z,100714.44
2023-12-18T15:16:53.616Z,100713.13
2023-12-18T15:19:21.340Z,100715.91
2023-12-18T15:21:49.178Z,100718.85
2023-12-18T15:24:16.844Z,100726.70
2023-12-18T15:26:44.371Z,100727.61
2023-12-18T15:29:11.950Z,100730.15
2023-12-18T15:31:40.174Z,100731.32
2023-12-18T15:34:08.163Z,100733.73
2023-12-18T15:36:37.783Z,100733.85
2023-12-18T15:39:05.441Z,100736.16
2023-12-18T15:41:33.013Z,100734.52
2023-12-18T15:44:00.560Z,100733.35
2023-12-18T15:46:28.249Z,100730.39
2023-12-18T15:48:55.962Z,100724.61
2023-12-18T15:51:23.870Z,100727.95
2023-12-18T15:53:51.829Z,100725.66
2023-12-18T15:56:19.400Z,100720.73
2023-12-18T15:58:46.967Z,100722.00
2023-12-18T16:01:15.029Z,100723.02
2023-12-18T16:03:43.012Z,100720.60
2023-12-18T16:06:10.861Z,100719.63
2023-12-18T16:08:38.405Z,100712.44
2023-12-18T16:11:05.962Z,100712.75
2023-12-18T16:13:33.625Z,100706.92
2023-12-18T16:16:01.830Z,100702.82
2023-12-18T16:18:29.782Z,100698.32
2023-12-18T16:20:57.222Z,100701.27
2023-12-18T16:23:24.998Z,100703.04
2023-12-18T16:25:52.595Z,100700.06
2023-12-18T16:28:20.312Z,100693.91
2023-12-18T16:30:56.039Z,100693.91
2023-12-18T16:33:25.431Z,100692.67
2023-12-18T16:35:53.411Z,100693.58
2023-12-18T16:38:21.506Z,100692.70
2023-12-18T16:40:49.162Z,100698.15
2023-12-18T16:43:16.831Z,100693.45
2023-12-18T16:45:44.381Z,100695.11
2023-12-18T16:48:12.008Z,100690.44
2023-12-18T16:50:39.818Z,100693.34
2023-12-18T16:53:07.503Z,100692.20
2023-12-18T16:55:35.032Z,100688.77
2023-12-18T16:58:02.706Z,100687.79
2023-12-18T17:00:30.372Z,100682.58
2023-12-18T17:02:58.019Z,100672.23
2023-12-18T17:05:25.689Z,100668.89
2023-12-18T17:07:53.575Z,100667.45
2023-12-18T17:10:21.112Z,100666.86
2023-12-18T17:12:48.786Z,100662.59
2023-12-18T17:15:16.486Z,100658.80
2023-12-18T17:17:44.206Z,100657.67
2023-12-18T17:20:11.804Z,100658.61
2023-12-18T17:22:39.743Z,100659.42
2023-12-18T17:25:07.389Z,100660.64
2023-12-18T17:27:35.194Z,100659.95
2023-12-18T17:30:02.814Z,100664.91
2023-12-18T17:32:30.550Z,100664.45
2023-12-18T17:34:58.483Z,100662.78
2023-12-18T17:37:26.295Z,100663.88
2023-12-18T17:39:54.078Z,100662.01
2023-12-18T17:42:22.169Z,100660.66
2023-12-18T17:44:49.693Z,100662.56
2023-12-18T17:47:17.370Z,100657.89
2023-12-18T17:49:45.022Z,100663.37
2023-12-18T17:52:12.694Z,100667.43
2023-12-18T17:54:40.284Z,100674.89
2023-12-18T17:57:07.903Z,100675.48
2023-12-18T17:59:35.466Z,100673.62
2023-12-18T18:02:03.126Z,100676.70
2023-12-18T18:04:31.243Z,100677.11
2023-12-18T18:06:59.001Z,100674.36
2023-12-18T18:09:26.680Z,100672.45
2023-12-18T18:11:54.276Z,100674.10
2023-12-18T18:14:21.947Z,100673.81
2023-12-18T18:16:49.505Z,100678.30
2023-12-18T18:19:17.277Z,100674.73
2023-12-18T18:21:44.960Z,100671.52
2023-12-18T18:24:12.931Z,100664.38
2023-12-18T18:26:40.555Z,100663.95
2023-12-18T18:29:08.115Z,100658.73
2023-12-18T18:31:35.849Z,100657.02
2023-12-18T18:34:03.756Z,100653.90
2023-12-18T18:36:31.536Z,100650.98
2023-12-18T18:38:59.183Z,100646.83
2023-12-18T18:41:27.034Z,100643.89
2023-12-18T18:43:55.117Z,100646.56
2023-12-18T18:46:22.674Z,100643.58
2023-12-18T18:48:50.401Z,100640.02
2023-12-18T18:51:18.231Z,100638.40
2023-12-18T18:53:45.965Z,100637.69
2023-12-18T18:56:13.526Z,100639.14
2023-12-18T18:58:41.190Z,100628.64
2023-12-18T19:01:08.880Z,100631.34
2023-12-18T19:03:36.814Z,100628.09
2023-12-18T19:06:04.783Z,100627.08
2023-12-18T19:08:32.554Z,100628.99
2023-12-18T19:10:59.998Z,100628.63
2023-12-18T19:13:27.559Z,100624.73
2023-12-18T19:15:55.480Z,100619.92
2023-12-18T19:18:23.426Z,100621.39
2023-12-18T19:20:51.062Z,100619.02
2023-12-18T19:23:18.713Z,100616.98
2023-12-18T19:25:46.278Z,100613.14
2023-12-18T19:28:13.878Z,100606.17
2023-12-18T19:30:41.572Z,100599.52
2023-12-18T19:33:09.391Z,100592.65
2023-12-18T19:35:37.118Z,100585.08
2023-12-18T19:38:04.693Z,100581.91
2023-12-18T19:40:32.243Z,100581.23
2023-12-18T19:42:59.863Z,100580.59
2023-12-18T19:45:27.596Z,100576.98
2023-12-18T19:47:55.589Z,100576.20
2023-12-18T19:50:23.982Z,100573.81
2023-12-18T19:52:51.685Z,100565.08
2023-12-18T19:55:19.238Z,100560.55
2023-12-18T19:57:46.905Z,100554.77
2023-12-18T20:00:14.567Z,100557.95
2023-12-18T20:02:42.609Z,100556.99
2023-12-18T20:05:10.501Z,100556.04
2023-12-18T20:07:38.203Z,100553.45
2023-12-18T20:10:05.952Z,100553.48
2023-12-18T20:12:33.650Z,100559.02
2023-12-18T20:15:01.540Z,100559.42
2023-12-18T20:17:29.267Z,100564.83
2023-12-18T20:19:56.932Z,100555.99
2023-12-18T20:22:24.598Z,100549.25
2023-12-18T20:24:52.456Z,100547.94
2023-12-18T20:27:20.237Z,100551.02
2023-12-18T20:29:47.932Z,100541.60
2023-12-18T20:32:15.495Z,100544.31
2023-12-18T20:34:43.251Z,100537.91
2023-12-18T20:37:11.004Z,100534.49
2023-12-18T20:39:38.829Z,100530.99
2023-12-18T20:42:06.467Z,100529.05
2023-12-18T20:44:34.009Z,100528.50
2023-12-18T20:47:01.660Z,100525.70
2023-12-18T20:49:29.409Z,100523.79
2023-12-18T20:51:57.622Z,100523.36
2023-12-18T20:54:25.390Z,100519.59
2023-12-18T20:56:53.031Z,100519.83
2023-12-18T20:59:20.605Z,100514.98
2023-12-18T21:01:48.441Z,100515.38
2023-12-18T21:04:16.273Z,100510.17
2023-12-18T21:06:43.998Z,100501.59
2023-12-18T21:09:11.643Z,100504.63
2023-12-18T21:11:39.410Z,100504.48
2023-12-18T21:14:07.431Z,100506.63
2023-12-18T21:16:35.256Z,100498.26
2023-12-18T21:19:03.009Z,100491.14
2023-12-18T21:21:30.930Z,100487.86
2023-12-18T21:23:58.643Z,100484.07
2023-12-18T21:26:26.296Z,100481.60
2023-12-18T21:28:53.869Z,100477.89
2023-12-18T21:31:21.833Z,100474.88
2023-12-18T21:33:49.854Z,100470.80
2023-12-18T21:36:17.677Z,100474.02
2023-12-18T21:38:45.217Z,100470.81
2023-12-18T21:41:12.781Z,100468.16
2023-12-18T21:43:40.364Z,100470.22
2023-12-18T21:46:08.041Z,100466.46
2023-12-18T21:48:35.820Z,100470.44
2023-12-18T21:51:03.445Z,100460.16
2023-12-18T21:53:31.106Z,100462.89
2023-12-18T21:55:58.651Z,100470.81
2023-12-18T21:58:26.658Z,100464.02
2023-12-18T22:00:54.350Z,100456.73
2023-12-18T22:03:22.233Z,100460.11
2023-12-18T22:05:50.147Z,100462.64
2023-12-18T22:08:17.883Z,100451.86
2023-12-18T22:10:45.544Z,100447.21
2023-12-18T22:13:13.125Z,100453.08
2023-12-18T22:15:40.695Z,100455.09
2023-12-18T22:18:08.487Z,100460.65
2023-12-18T22:20:36.490Z,100461.59
2023-12-18T22:23:04.069Z,100467.63
2023-12-18T22:25:31.714Z,100472.26
2023-12-18T22:27:59.390Z,100477.55
2023-12-18T22:30:27.121Z,100479.00
2023-12-18T22:32:54.965Z,100479.91
2023-12-18T22:35:22.565Z,100477.11
2023-12-18T22:37:50.134Z,100468.35
2023-12-18T22:40:17.989Z,100456.59
2023-12-18T22:42:45.839Z,100445.31
2023-12-18T22:45:13.787Z,100441.71
2023-12-18T22:47:41.414Z,100439.35
2023-12-18T22:50:09.128Z,100433.00
2023-12-18T22:52:36.815Z,100414.20
2023-12-18T22:55:04.520Z,100403.86
2023-12-18T22:57:32.155Z,100401.59
2023-12-18T22:59:59.795Z,100396.73
2023-12-18T23:02:27.355Z,100402.41
2023-12-18T23:04:55.127Z,100393.71
2023-12-18T23:07:22.783Z,100388.14
2023-12-18T23:09:50.457Z,100386.13
2023-12-18T23:12:18.110Z,100382.02
2023-12-18T23:14:45.666Z,100386.08
2023-12-18T23:17:13.225Z,100385.56
2023-12-18T23:19:40.840Z,100381.55
2023-12-18T23:22:08.692Z,100377.69
2023-12-18T23:27:17.610Z,100374.67
2023-12-18T23:29:45.148Z,100381.17
2023-12-18T23:32:12.806Z,100380.33
2023-12-18T23:34:40.552Z,100373.55
2023-12-18T23:37:08.743Z,100363.59
2023-12-18T23:39:36.419Z,100360.46
2023-12-18T23:42:04.064Z,100359.27
2023-12-18T23:44:31.646Z,100362.64
2023-12-18T23:46:59.294Z,100360.40
2023-12-18T23:49:26.936Z,100360.79
2023-12-18T23:51:54.836Z,100352.23
2023-12-18T23:54:22.641Z,100337.71
2023-12-18T23:56:50.352Z,100339.11
2023-12-18T23:59:18.318Z,100329.13
